Pagrindinis puslapis
METAR-TAF:

METAR-TAF

Oro uostai :

Džohor Baru, Malaizija

platuma: 01-38N, ilguma: 103-40E, Aukštis: 37 m

Dabartinis oras

Ataskaita buvo paskelbta 1 valandą ir 6 minutes, ne 20:00 UTC
Ramus vėjas
Temperatūra 24°C
Drėgmė 100%
Slėgis 1009 hPa
Matomumas: 4000 m
Mažai debesys ne aukštis 1000 ft
Su prošvaistėmis ne aukštis 28000 ft
rūkana

METAR: WMKJ 202000Z 00000KT 4000 BR FEW010 BKN280 24/24 Q1009

Laikas: 05:06 (21:06 UTC)

Prognozė

Ataskaita buvo paskelbta 4 valandos ir 6 minutes, ne 17:00 UTC
Prognozė galioja nuo 20 metu 18 UTC su 21 metu 18 UTC
Vėjas 5 kt iš Pietų/Pietryčių
Matomumas: 5000 m
Mažai debesys ne aukštis 2300 ft
migla
Tapsmas
nuo 20 metu 19 UTC su 20 metu 21 UTC
Matomumas: 3000 m
Mažai debesys ne aukštis 800 ft
rūkana
Tapsmas
nuo 21 metu 00 UTC su 21 metu 01 UTC
Matomumas: 6000 m
Mažai debesys ne aukštis 1800 ft

TAF: WMKJ 201700Z 2018/2118 15005KT 5000 HZ FEW023 BECMG 2019/2021 3000 BR FEW008 BECMG 2100/2101 6000 FEW018

Orai ataskaitas ir orų prognozės (METAR, TAF).

turimą stotys yra geltonos ir raudonos taškus žemėlapyje.

Perkelti pele per norėdami pamatyti stoties vardą.

Tada spustelėkite, norėdami matyti oro stebėjimo ir prognozės.

Norėdami pakeisti žemėlapį: spustelėkite ant žalios mygtukų su juodo kryžiaus žemyn,; žalią mygtuką su brūkšneliu, jei norite nutolinti; arba žalių rodyklių gretimoms žemėlapius.


METAR-TAF: